Crane, Texas
Current Conditions -  °F | °C
As of 10:53 PM on Friday 24 Oct 2014 (Local Time) from KODO Reporting Station
Clear Clear  
Wind Chill: 69°   Ceiling: Unl
Heat Index: 69°   Visibility: 10mi
Dew Point: 48°   Wind: 7mph
Humidity: 47%   Direction: 180°S
Pressure: 30.18"   Gusts: NA
Location:  31.4°N, 102.35°W
Report Text: KODO 250353Z AUTO 18006KT 10SM CLR 21/09 A3018 RMK AO2 SLP181 T02060089
Loading
Personal Weather Stations






























Interactive Weather Map
Tropical Storm Tracking
New forecast layout! Learn more

10-Day Weather Forecast

Advertisements
Track Severe Weather on mobile